Latest Weather Observations for Grafton Airport

IDN60801

Issued at 12:32 am EST Sunday 24 September 2017 (issued every 30 minutes, with the page automatically refreshed every 10 minutes)

About weather observations | Map of weather stations | Latest weather observations for NSW | Other Formats
Station Details ID: 058161 Name: GRAFTON AIRPORT AWS Lat: -29.76 Lon: 153.03 Height: 25.09 m
Data from the previous 72 hours. | See also: Recent months at Grafton Airport
Date/Time
EST
Temp
°C
App
Temp
°C
Dew
Point
°C
Rel
Hum
%
Delta-T
°C
Wind Press
QNH
hPa
Press
MSL
hPa
Rain since
9am
mm
Dir  Spd
km/h
Gust
km/h
Spd
kts
Gust
kts
24/12:30am 16.2 16.3 13.9 86 1.3 SSW 6 7 3 4 1009.9 1009.8 0.0
24/12:00am 16.6 17.8 13.9 84 1.5 CALM 0 0 0 0 1010.2 1010.1 0.0
 
Date/Time
EST
Temp
°C
App
Temp
°C
Dew
Point
°C
Rel
Hum
%
Delta-T
°C
Wind Press
QNH
hPa
Press
MSL
hPa
Rain since
9am
mm
Dir  Spd
km/h
Gust
km/h
Spd
kts
Gust
kts
23/11:30pm 18.3 20.1 15.6 84 1.6 CALM 0 0 0 0 1010.3 1010.2 0.0
23/11:00pm 17.0 18.2 13.9 82 1.8 CALM 0 7 0 4 1010.2 1010.1 0.0
23/10:30pm 17.8 19.1 14.1 79 2.1 CALM 0 0 0 0 1010.2 1010.1 0.0
23/10:00pm 18.5 19.4 14.0 75 2.6 ENE 2 6 1 3 1010.2 1010.1 0.0
23/09:30pm 19.6 20.3 14.6 73 2.9 E 4 7 2 4 1010.4 1010.3 0.0
23/09:00pm 20.6 22.3 15.2 71 3.2 CALM 0 0 0 0 1010.4 1010.3 0.0
23/08:30pm 20.9 22.5 14.8 68 3.6 CALM 0 0 0 0 1010.2 1010.1 0.0
23/08:00pm 21.2 22.6 14.4 65 4.0 CALM 0 2 0 1 1010.1 1010.0 0.0
23/07:30pm 22.2 23.0 14.8 63 4.4 N 4 6 2 3 1009.9 1009.8 0.0
23/07:00pm 22.3 22.3 13.6 58 5.0 N 6 7 3 4 1009.4 1009.3 0.0
23/06:30pm 24.6 24.8 14.7 54 5.9 NE 7 11 4 6 1009.1 1009.0 0.0
23/06:00pm 25.2 24.5 14.3 50 6.5 NE 11 15 6 8 1008.9 1008.8 0.0
23/05:30pm 26.7 25.3 14.5 47 7.3 NE 15 20 8 11 1008.8 1008.7 0.0
23/05:00pm 27.7 26.5 14.0 43 8.2 NE 13 17 7 9 1008.6 1008.5 0.0
23/04:30pm 29.3 27.0 13.1 37 9.6 NE 17 22 9 12 1008.5 1008.4 0.0
23/04:00pm 30.3 27.4 12.2 33 10.6 NE 19 32 10 17 1008.3 1008.2 0.0
23/03:30pm 31.9 28.8 12.2 30 11.6 NE 20 32 11 17 1008.3 1008.2 0.0
23/03:00pm 33.2 29.9 12.8 29 12.2 NE 22 30 12 16 1008.4 1008.3 0.0
23/02:30pm 33.8 30.4 9.1 22 14.0 NNE 17 26 9 14 1008.5 1008.4 0.0
23/02:00pm 33.7 31.0 10.3 24 13.5 NNE 15 26 8 14 1009.0 1008.9 0.0
23/01:30pm 33.1 31.0 11.0 26 12.9 NNE 13 20 7 11 1009.6 1009.5 0.0
23/01:00pm 31.9 29.6 11.7 29 11.9 N 15 20 8 11 1010.2 1010.1 0.0
23/12:30pm 31.4 28.9 11.2 29 11.7 N 15 19 8 10 1010.7 1010.6 0.0
23/12:00pm 30.5 29.3 11.5 31 11.0 NNW 9 20 5 11 1011.4 1011.3 0.0
23/11:30am 29.5 27.9 11.5 33 10.4 N 11 17 6 9 1012.0 1011.9 0.0
23/11:00am 28.1 27.0 12.0 36 9.3 NNE 9 17 5 9 1012.7 1012.6 0.0
23/10:30am 27.1 26.4 13.1 42 8.2 NNW 9 11 5 6 1013.3 1013.2 0.0
23/10:00am 25.3 24.4 13.8 49 6.8 N 11 17 6 9 1013.7 1013.6 0.0
23/09:30am 23.9 24.4 17.4 67 4.0 NNE 11 15 6 8 1014.1 1014.0 0.0
23/09:00am 21.7 24.2 20.2 91 1.0 N 7 11 4 6 1014.6 1014.5 0.0
23/08:30am 19.1 20.8 18.1 94 0.6 NNE 6 7 3 4 1014.8 1014.7 0.0
23/08:00am 16.7 18.4 16.1 96 0.4 NNE 2 6 1 3 1014.9 1014.8 0.0
23/07:53am 16.1 17.2 15.5 96 0.3 NNE 4 7 2 4 1014.8 1014.7 0.0
23/07:52am 16.1 17.2 15.5 96 0.3 NNE 4 9 2 5 1014.8 1014.7 0.0
23/07:30am 14.4 15.2 13.8 96 0.3 NNE 2 7 1 4 1014.7 1014.6 0.0
23/07:00am 13.0 13.7 12.2 95 0.4 CALM 0 0 0 0 1014.6 1014.5 0.0
23/06:30am 12.0 11.2 11.2 95 0.4 NNE 6 7 3 4 1014.3 1014.2 0.0
23/06:04am 11.1 11.2 10.3 95 0.4 CALM 0 0 0 0 1014.2 1014.1 0.0
23/06:00am 10.9 11.0 10.0 94 0.5 CALM 0 0 0 0 1014.2 1014.1 0.0
23/05:30am 11.4 11.6 10.5 94 0.5 CALM 0 0 0 0 1013.9 1013.8 0.0
23/05:00am 11.7 12.0 10.8 94 0.5 CALM 0 0 0 0 1013.9 1013.8 0.0
23/04:49am 12.2 11.9 11.3 94 0.5 S 4 6 2 3 1013.9 1013.8 0.0
23/04:30am 12.2 12.2 11.3 94 0.5 SW 2 7 1 4 1013.8 1013.7 0.0
23/04:00am 12.7 13.3 11.8 94 0.5 CALM 0 0 0 0 1013.5 1013.4 0.0
23/03:30am 13.1 13.7 12.0 93 0.6 CALM 0 0 0 0 1013.6 1013.5 0.0
23/03:00am 13.2 13.9 12.1 93 0.6 CALM 0 0 0 0 1013.7 1013.6 0.0
23/02:37am 13.2 13.9 12.1 93 0.6 CALM 0 0 0 0 1013.7 1013.6 0.0
23/02:30am 13.1 13.7 12.0 93 0.6 CALM 0 0 0 0 1013.7 1013.6 0.0
23/02:00am 14.1 15.0 13.0 93 0.6 CALM 0 0 0 0 1013.8 1013.7 0.0
23/01:47am 13.8 14.2 12.5 92 0.7 SSW 2 7 1 4 1014.1 1014.0 0.0
23/01:43am 14.0 14.8 12.7 92 0.7 CALM 0 0 0 0 1014.1 1014.0 0.0
23/01:30am 14.4 15.4 13.1 92 0.7 CALM 0 0 0 0 1014.2 1014.1 0.0
23/01:11am 14.4 15.4 13.1 92 0.7 CALM 0 0 0 0 1014.5 1014.4 0.0
23/01:00am 14.5 15.5 13.2 92 0.7 CALM 0 0 0 0 1014.5 1014.4 0.0
23/12:30am 15.1 16.2 13.6 91 0.8 CALM 0 0 0 0 1014.8 1014.7 0.0
23/12:24am 14.9 16.0 13.4 91 0.8 CALM 0 0 0 0 1014.8 1014.7 0.0
23/12:00am 15.4 16.6 13.9 91 0.8 CALM 0 0 0 0 1014.8 1014.7 0.0
 
Date/Time
EST
Temp
°C
App
Temp
°C
Dew
Point
°C
Rel
Hum
%
Delta-T
°C
Wind Press
QNH
hPa
Press
MSL
hPa
Rain since
9am
mm
Dir  Spd
km/h
Gust
km/h
Spd
kts
Gust
kts
22/11:30pm 15.7 17.0 14.1 90 0.9 CALM 0 0 0 0 1014.8 1014.7 0.0
22/11:00pm 16.3 17.7 14.5 89 1.0 CALM 0 0 0 0 1014.6 1014.5 0.0
22/10:49pm 16.6 18.2 14.8 89 1.0 CALM 0 0 0 0 1014.6 1014.5 0.0
22/10:30pm 17.2 19.0 15.4 89 1.1 CALM 0 0 0 0 1014.4 1014.3 0.0
22/10:00pm 17.3 19.0 15.1 87 1.3 CALM 0 0 0 0 1014.4 1014.3 0.0
22/09:30pm 17.7 19.4 15.1 85 1.5 CALM 0 0 0 0 1014.2 1014.1 0.0
22/09:00pm 18.5 19.2 15.6 83 1.7 S 6 9 3 5 1014.1 1014.0 0.0
22/08:30pm 18.6 19.1 14.9 79 2.2 S 6 7 3 4 1014.1 1014.0 0.0
22/08:00pm 19.8 21.6 15.4 76 2.6 CALM 0 0 0 0 1013.9 1013.8 0.0
22/07:30pm 20.7 21.2 15.5 72 3.1 SSE 7 9 4 5 1013.5 1013.4 0.0
22/07:00pm 21.3 21.7 15.2 68 3.6 SE 7 9 4 5 1013.2 1013.1 0.0
22/06:30pm 21.9 22.8 15.0 65 4.1 E 4 7 2 4 1012.7 1012.6 0.0
22/06:00pm 22.9 22.6 15.5 63 4.4 ENE 11 19 6 10 1012.6 1012.5 0.0
22/05:30pm 24.1 24.6 15.1 57 5.4 ENE 6 9 3 5 1012.4 1012.3 0.0
22/05:00pm 25.3 24.5 15.0 53 6.2 NE 13 19 7 10 1012.1 1012.0 0.0
22/04:30pm 26.5 24.9 14.9 49 7.0 ENE 17 22 9 12 1011.8 1011.7 0.0
22/04:00pm 27.3 25.3 15.0 47 7.5 ENE 19 24 10 13 1011.5 1011.4 0.0
22/03:30pm 28.0 26.1 15.3 46 7.7 ENE 19 26 10 14 1011.6 1011.5 0.0
22/03:00pm 28.9 26.6 14.7 42 8.6 NE 20 32 11 17 1011.6 1011.5 0.0
22/02:30pm 29.5 27.7 14.5 40 9.1 NE 17 24 9 13 1011.7 1011.6 0.0
22/02:00pm 29.5 27.7 14.5 40 9.1 NE 17 24 9 13 1012.1 1012.0 0.0
22/01:30pm 29.3 27.2 14.7 41 8.9 NNE 19 26 10 14 1012.5 1012.4 0.0
22/01:00pm 28.2 26.4 14.4 42 8.3 NNE 17 26 9 14 1013.0 1012.9 0.0
22/12:30pm 28.3 26.8 15.2 44 8.0 NE 17 26 9 14 1013.6 1013.5 0.0
22/12:00pm 27.3 26.7 15.7 49 7.1 N 13 24 7 13 1014.3 1014.2 0.0
22/11:30am 26.4 25.7 16.3 53 6.2 N 15 24 8 13 1015.2 1015.1 0.0
22/11:00am 24.2 23.5 15.4 58 5.3 N 13 19 7 10 1015.9 1015.8 0.0
22/10:30am 23.0 22.2 15.1 61 4.7 N 13 20 7 11 1016.4 1016.3 0.0
22/10:00am 22.5 22.2 15.4 64 4.2 NE 11 17 6 9 1016.9 1016.9 0.0
22/09:30am 20.7 21.1 15.3 71 3.2 N 7 13 4 7 1017.4 1017.4 0.0
22/09:00am 19.3 20.4 16.5 84 1.7 NNE 6 9 3 5 1017.9 1017.9 0.0
22/08:30am 16.9 17.5 15.4 91 0.9 N 6 9 3 5 1018.1 1018.1 0.0
22/08:00am 15.2 15.2 14.1 93 0.6 N 7 9 4 5 1018.0 1018.0 0.0
22/07:30am 13.8 14.7 12.9 94 0.5 CALM 0 0 0 0 1017.9 1017.9 0.0
22/07:00am 12.3 12.0 11.4 94 0.5 NE 4 7 2 4 1017.9 1017.9 0.0
22/06:30am 10.7 10.7 9.8 94 0.5 CALM 0 0 0 0 1017.7 1017.7 0.0
22/06:05am 9.5 9.1 8.4 93 0.5 CALM 0 0 0 0 1017.4 1017.4 0.0
22/06:00am 9.5 9.1 8.4 93 0.5 CALM 0 0 0 0 1017.4 1017.4 0.0
22/05:49am 9.9 9.6 8.8 93 0.5 CALM 0 0 0 0 1017.3 1017.3 0.0
22/05:30am 10.0 9.0 8.9 93 0.5 S 4 6 2 3 1017.1 1017.1 0.0
22/05:00am 10.2 10.0 9.1 93 0.5 CALM 0 0 0 0 1017.1 1017.1 0.0
22/04:37am 10.8 10.8 9.7 93 0.6 CALM 0 0 0 0 1016.9 1016.9 0.0
22/04:30am 11.2 11.3 10.1 93 0.6 CALM 0 0 0 0 1016.8 1016.8 0.0
22/04:00am 10.7 10.6 9.6 93 0.6 CALM 0 0 0 0 1016.7 1016.6 0.0
22/03:51am 10.9 10.9 9.8 93 0.6 CALM 0 0 0 0 1016.6 1016.5 0.0
22/03:30am 11.0 10.6 9.9 93 0.6 S 2 6 1 3 1016.5 1016.4 0.0
22/03:00am 11.0 11.0 9.8 92 0.6 CALM 0 0 0 0 1016.5 1016.4 0.0
22/02:30am 11.5 11.6 10.2 92 0.7 CALM 0 0 0 0 1016.5 1016.4 0.0
22/02:00am 12.0 12.2 10.7 92 0.7 CALM 0 0 0 0 1016.7 1016.6 0.0
22/01:30am 12.0 11.1 10.7 92 0.7 SSW 6 7 3 4 1016.9 1016.9 0.0
22/01:00am 12.3 11.8 10.9 91 0.7 SSW 4 6 2 3 1017.1 1017.1 0.0
22/12:30am 12.2 12.4 10.6 90 0.8 CALM 0 0 0 0 1017.2 1017.2 0.0
22/12:00am 12.7 13.1 11.1 90 0.8 CALM 0 0 0 0 1017.2 1017.2 0.0
 
Date/Time
EST
Temp
°C
App
Temp
°C
Dew
Point
°C
Rel
Hum
%
Delta-T
°C
Wind Press
QNH
hPa
Press
MSL
hPa
Rain since
9am
mm
Dir  Spd
km/h
Gust
km/h
Spd
kts
Gust
kts
21/11:30pm 13.1 13.5 11.3 89 1.0 CALM 0 0 0 0 1017.3 1017.3 0.0
21/11:00pm 13.5 14.0 11.7 89 1.0 CALM 0 0 0 0 1017.3 1017.3 0.0
21/10:30pm 14.0 13.3 12.0 88 1.1 S 7 9 4 5 1017.3 1017.3 0.0
21/10:00pm 14.4 13.7 12.1 86 1.2 S 7 9 4 5 1017.5 1017.5 0.0
21/09:30pm 14.9 14.3 12.4 85 1.4 S 7 9 4 5 1017.4 1017.4 0.0
21/09:00pm 15.5 16.3 12.4 82 1.7 CALM 0 0 0 0 1017.4 1017.4 0.0
21/08:30pm 16.1 15.7 12.5 79 2.0 SSE 6 7 3 4 1017.1 1017.1 0.0
21/08:00pm 18.0 18.1 13.9 77 2.3 ENE 6 7 3 4 1016.8 1016.8 0.0
21/07:30pm 18.6 18.7 13.9 74 2.7 E 6 9 3 5 1016.5 1016.4 0.0
21/07:00pm 18.9 18.2 13.1 69 3.3 ENE 9 11 5 6 1016.0 1015.9 0.0
21/06:30pm 19.2 18.3 12.7 66 3.7 ENE 9 13 5 7 1015.7 1015.6 0.0
21/06:00pm 20.0 18.3 12.5 62 4.2 ENE 13 17 7 9 1015.2 1015.1 0.0
21/05:30pm 21.1 17.9 12.0 56 5.1 NE 20 28 11 15 1014.8 1014.7 0.0
21/05:00pm 22.5 19.4 11.6 50 6.1 NE 19 26 10 14 1014.5 1014.4 0.0
21/04:30pm 24.2 20.7 10.8 43 7.5 NE 20 28 11 15 1014.3 1014.2 0.0
21/04:00pm 25.9 22.3 9.7 36 8.9 NE 19 24 10 13 1014.0 1013.9 0.0
21/03:30pm 26.9 22.7 4.0 23 11.5 NNE 15 20 8 11 1014.2 1014.1 0.0
21/03:00pm 27.3 24.4 4.4 23 11.6 NW 9 15 5 8 1014.3 1014.2 0.0
21/02:30pm 27.1 23.6 3.6 22 11.7 N 11 17 6 9 1014.5 1014.4 0.0
21/02:00pm 26.9 24.7 7.9 30 10.2 NNE 9 17 5 9 1014.7 1014.6 0.0
21/01:30pm 26.1 22.8 4.6 25 10.9 NNW 11 17 6 9 1015.2 1015.1 0.0
21/01:00pm 25.4 23.0 8.8 35 9.0 N 11 20 6 11 1015.6 1015.5 0.0
21/12:30pm 24.6 21.8 10.1 40 8.0 NE 15 20 8 11 1016.3 1016.2 0.0
21/12:00pm 23.8 21.1 10.5 43 7.3 N 15 20 8 11 1016.9 1016.9 0.0
21/11:30am 23.0 21.2 10.8 46 6.8 N 11 20 6 11 1017.7 1017.7 0.0
21/11:00am 23.0 21.9 12.0 50 6.2 N 9 24 5 13 1018.2 1018.2 0.0
21/10:30am 21.5 19.3 10.9 51 5.8 N 13 20 7 11 1018.7 1018.7 0.0
21/10:00am 21.3 19.2 11.3 53 5.5 N 13 20 7 11 1019.0 1019.0 0.0
21/09:30am 20.1 19.3 11.8 59 4.6 NNW 7 15 4 8 1019.3 1019.3 0.0
21/09:00am 18.6 17.8 13.0 70 3.1 N 9 13 5 7 1019.4 1019.4 0.0
21/08:30am 16.9 16.8 14.0 83 1.6 N 7 11 4 6 1019.8 1019.8 0.0
21/08:00am 15.4 15.5 13.8 90 0.9 NE 6 7 3 4 1019.8 1019.8 0.0
21/07:30am 13.2 13.4 11.9 92 0.7 W 2 6 1 3 1019.7 1019.7 0.0
21/07:00am 11.8 12.0 10.5 92 0.7 CALM 0 0 0 0 1019.4 1019.4 0.0
21/06:30am 9.7 9.4 8.5 92 0.6 CALM 0 0 0 0 1019.1 1019.1 0.0
21/06:00am 8.5 7.8 7.1 91 0.7 CALM 0 0 0 0 1018.8 1018.8 0.0
21/05:30am 9.1 8.6 7.7 91 0.7 CALM 0 4 0 2 1018.5 1018.5 0.0
21/05:00am 9.8 8.3 8.4 91 0.7 SSE 6 7 3 4 1018.5 1018.5 0.0
21/04:30am 9.7 9.3 8.1 90 0.8 CALM 0 0 0 0 1018.4 1018.4 0.0
21/04:00am 9.8 9.4 8.2 90 0.8 CALM 0 0 0 0 1018.3 1018.3 0.0
21/03:30am 9.8 9.0 8.1 89 0.8 S 2 7 1 4 1018.0 1018.0 0.0
21/03:00am 9.9 9.5 8.2 89 0.8 CALM 0 0 0 0 1017.9 1017.9 0.0
21/02:30am 10.1 9.7 8.2 88 0.9 CALM 0 0 0 0 1018.1 1018.1 0.0
21/02:00am 10.7 9.2 8.6 87 1.0 S 6 9 3 5 1018.4 1018.4 0.0
21/01:30am 11.1 10.8 8.8 86 1.1 CALM 0 0 0 0 1018.6 1018.6 0.0
21/01:00am 11.4 11.1 8.8 84 1.3 CALM 0 0 0 0 1018.9 1018.9 0.0

Other Formats:

Comma delimited format used in spreadsheet applications
http://www.bom.gov.au/fwo/IDN60801/IDN60801.95570.axf

JavaScript Object Notation format (JSON) in row-major order
http://www.bom.gov.au/fwo/IDN60801/IDN60801.95570.json